EVW weather

Evanston-Uinta County Airport-Burns Field
Evanston, Wyoming, United States

Public forecast

Using degrees Fahrenheit for public forecast. Weather courtesy of forecast.io.

METAR (pilot weather report)

Retrieved 2019/07/16 06:53 UTC (46 minutes ago):

KEVW 160653Z AUTO 12005KT 10SM CLR 16/01 A3018 RMK AO2 SLP110 T01610011 402890150

TAF (pilot weather forecast)

Retrieved 2019/07/16 06:24 UTC (1 hour ago):

TAF KEVW 160520Z 1606/1706 15006KT P6SM SKC FM161600 24010KT P6SM FEW120 FM161900 24015G25KT P6SM SCT120 FM170200 27007KT P6SM SKC